Mt.champion — 5NMC5 — position and weather

sailwx.info

Track history (hours):
 
Tides and Currents Weather Stations Pressure Air Temp Water Temp Dewpoint Dewpoint Depression Visibility Wind Speed Wind Dir Waves Ship Positions

Mt.champion

Last reported at 2018-Apr-27 20:19 UTC. Time now 2018-Aug-19 22:54 UTC.
Position N 06°02' E 001°56'.
Warning: this ship's position is months out of date.

Length 134 m; draft 3.5 m.

Type: Tanker. MMSI: 657816000.

Date/timePositionNaut miles runAvg speedWind from/ knotsBaromVisibWave heightAir tempDewpointWater temp
2018-Apr-27 20:19N 06°02' E 001°56'2 6.3
2018-Apr-27 19:56N 06°02' E 001°54'3 6.3
2018-Apr-27 19:30N 06°02' E 001°51'3 6.3
2018-Apr-27 19:00N 06°02' E 001°48'4 6.4
2018-Apr-27 18:23N 06°02' E 001°44'2 6.4
2018-Apr-27 18:00N 06°03' E 001°41'3 6.4
2018-Apr-27 17:30N 06°03' E 001°38'4 6.4
2018-Apr-27 16:54N 06°03' E 001°34'3 6.4
2018-Apr-27 16:24N 06°03' E 001°31'3 6.5
2018-Apr-27 16:00N 06°03' E 001°28'12 6.5
2018-Apr-27 14:11N 06°02' E 001°17'2 0.1
2018-Apr-27 01:54N 06°04' E 001°15'0 0.0
2018-Apr-27 01:30N 06°04' E 001°15'0 0.0
2018-Apr-27 00:54N 06°04' E 001°15'0 0.0
2018-Apr-27 00:30N 06°04' E 001°15'0 0.0
2018-Apr-27 00:00N 06°04' E 001°15'0 0.0
2018-Apr-26 22:48N 06°04' E 001°15'1 0.7
2018-Apr-26 21:57N 06°04' E 001°15'0 0.0
2018-Apr-26 21:24N 06°04' E 001°15'0 0.0
2018-Apr-26 20:57N 06°04' E 001°15'0 0.0
2018-Apr-26 20:27N 06°04' E 001°15'0 0.0
2018-Apr-26 20:00N 06°04' E 001°15'  
Track history (hours):
 
Tides and Currents Weather Stations Pressure Air Temp Water Temp Dewpoint Dewpoint Depression Visibility Wind Speed Wind Dir Waves Ship Positions

Mt.champion

Last reported at 2018-Apr-27 20:19 UTC. Time now 2018-Aug-19 22:54 UTC.
Position N 06°02' E 001°56'.
Warning: this ship's position is months out of date.

Length 134 m; draft 3.5 m.

Type: Tanker. MMSI: 657816000.

Date/timePositionNaut miles runAvg speedWind from/ knotsBaromVisibWave heightAir tempDewpointWater temp
2018-Apr-27 20:19N 06°02' E 001°56'2 6.3
2018-Apr-27 19:56N 06°02' E 001°54'3 6.3
2018-Apr-27 19:30N 06°02' E 001°51'3 6.3
2018-Apr-27 19:00N 06°02' E 001°48'4 6.4
2018-Apr-27 18:23N 06°02' E 001°44'2 6.4
2018-Apr-27 18:00N 06°03' E 001°41'3 6.4
2018-Apr-27 17:30N 06°03' E 001°38'4 6.4
2018-Apr-27 16:54N 06°03' E 001°34'3 6.4
2018-Apr-27 16:24N 06°03' E 001°31'3 6.5
2018-Apr-27 16:00N 06°03' E 001°28'12 6.5
2018-Apr-27 14:11N 06°02' E 001°17'2 0.1
2018-Apr-27 01:54N 06°04' E 001°15'0 0.0
2018-Apr-27 01:30N 06°04' E 001°15'0 0.0
2018-Apr-27 00:54N 06°04' E 001°15'0 0.0
2018-Apr-27 00:30N 06°04' E 001°15'0 0.0
2018-Apr-27 00:00N 06°04' E 001°15'0 0.0
2018-Apr-26 22:48N 06°04' E 001°15'1 0.7
2018-Apr-26 21:57N 06°04' E 001°15'0 0.0
2018-Apr-26 21:24N 06°04' E 001°15'0 0.0
2018-Apr-26 20:57N 06°04' E 001°15'0 0.0
2018-Apr-26 20:27N 06°04' E 001°15'0 0.0
2018-Apr-26 20:00N 06°04' E 001°15'  

Dump ship's entire track history